sensor_id;sensor_type;location;lat;lon;timestamp;P1;durP1;ratioP1;P2;durP2;ratioP2
24557;SDS011;12726;49.148;8.582;2022-12-07T00:02:11;14.75;;;8.88;;
24557;SDS011;12726;49.148;8.582;2022-12-07T00:04:56;14.70;;;9.25;;
24557;SDS011;12726;49.148;8.582;2022-12-07T00:07:41;13.88;;;8.85;;
24557;SDS011;12726;49.148;8.582;2022-12-07T00:10:26;16.17;;;8.77;;
24557;SDS011;12726;49.148;8.582;2022-12-07T00:13:12;14.38;;;9.68;;
24557;SDS011;12726;49.148;8.582;2022-12-07T00:16:00;16.58;;;10.98;;
24557;SDS011;12726;49.148;8.582;2022-12-07T00:18:46;18.10;;;11.05;;
24557;SDS011;12726;49.148;8.582;2022-12-07T00:21:32;15.35;;;10.32;;
24557;SDS011;12726;49.148;8.582;2022-12-07T00:24:19;18.58;;;11.55;;
24557;SDS011;12726;49.148;8.582;2022-12-07T00:27:04;16.30;;;10.48;;
24557;SDS011;12726;49.148;8.582;2022-12-07T00:29:50;17.60;;;11.45;;
24557;SDS011;12726;49.148;8.582;2022-12-07T00:32:37;18.20;;;11.10;;
24557;SDS011;12726;49.148;8.582;2022-12-07T00:35:22;16.08;;;11.13;;
24557;SDS011;12726;49.148;8.582;2022-12-07T00:38:07;13.38;;;9.40;;
24557;SDS011;12726;49.148;8.582;2022-12-07T00:40:56;15.80;;;10.63;;
24557;SDS011;12726;49.148;8.582;2022-12-07T00:43:42;13.48;;;9.65;;
24557;SDS011;12726;49.148;8.582;2022-12-07T00:46:29;13.15;;;8.80;;
24557;SDS011;12726;49.148;8.582;2022-12-07T00:49:16;14.93;;;8.70;;
24557;SDS011;12726;49.148;8.582;2022-12-07T00:52:01;12.63;;;8.95;;
24557;SDS011;12726;49.148;8.582;2022-12-07T00:54:46;15.48;;;9.43;;
24557;SDS011;12726;49.148;8.582;2022-12-07T00:57:32;16.60;;;10.15;;
24557;SDS011;12726;49.148;8.582;2022-12-07T01:00:17;15.88;;;10.13;;
24557;SDS011;12726;49.148;8.582;2022-12-07T01:03:03;16.45;;;10.50;;
24557;SDS011;12726;49.148;8.582;2022-12-07T01:05:50;16.55;;;9.48;;
24557;SDS011;12726;49.148;8.582;2022-12-07T01:08:36;16.08;;;9.40;;
24557;SDS011;12726;49.148;8.582;2022-12-07T01:11:21;16.15;;;10.00;;
24557;SDS011;12726;49.148;8.582;2022-12-07T01:14:08;15.70;;;9.93;;
24557;SDS011;12726;49.148;8.582;2022-12-07T01:16:53;14.27;;;9.75;;
24557;SDS011;12726;49.148;8.582;2022-12-07T01:19:39;15.98;;;10.23;;
24557;SDS011;12726;49.148;8.582;2022-12-07T01:22:25;15.32;;;10.07;;
24557;SDS011;12726;49.148;8.582;2022-12-07T01:25:11;15.35;;;9.95;;
24557;SDS011;12726;49.148;8.582;2022-12-07T01:27:56;17.05;;;10.50;;
24557;SDS011;12726;49.148;8.582;2022-12-07T01:30:41;14.40;;;9.40;;
24557;SDS011;12726;49.148;8.582;2022-12-07T01:33:27;15.20;;;9.32;;
24557;SDS011;12726;49.148;8.582;2022-12-07T01:36:14;14.02;;;9.20;;
24557;SDS011;12726;49.148;8.582;2022-12-07T01:39:02;14.90;;;9.57;;
24557;SDS011;12726;49.148;8.582;2022-12-07T01:41:49;15.65;;;9.85;;
24557;SDS011;12726;49.148;8.582;2022-12-07T01:47:54;18.15;;;10.50;;
24557;SDS011;12726;49.148;8.582;2022-12-07T01:50:41;15.00;;;9.65;;
24557;SDS011;12726;49.148;8.582;2022-12-07T01:53:28;14.75;;;9.80;;
24557;SDS011;12726;49.148;8.582;2022-12-07T01:56:17;17.85;;;10.57;;
24557;SDS011;12726;49.148;8.582;2022-12-07T01:59:07;18.48;;;11.30;;
24557;SDS011;12726;49.148;8.582;2022-12-07T02:01:53;18.70;;;11.57;;
24557;SDS011;12726;49.148;8.582;2022-12-07T02:04:39;16.80;;;11.18;;
24557;SDS011;12726;49.148;8.582;2022-12-07T02:07:25;17.20;;;11.23;;
24557;SDS011;12726;49.148;8.582;2022-12-07T02:10:13;18.35;;;11.38;;
24557;SDS011;12726;49.148;8.582;2022-12-07T02:13:01;17.35;;;11.85;;
24557;SDS011;12726;49.148;8.582;2022-12-07T02:15:53;20.30;;;11.88;;
24557;SDS011;12726;49.148;8.582;2022-12-07T02:18:52;21.38;;;11.95;;
24557;SDS011;12726;49.148;8.582;2022-12-07T02:21:47;16.92;;;11.50;;
24557;SDS011;12726;49.148;8.582;2022-12-07T02:24:42;17.05;;;10.55;;
24557;SDS011;12726;49.148;8.582;2022-12-07T02:27:36;22.67;;;10.93;;
24557;SDS011;12726;49.148;8.582;2022-12-07T02:30:26;17.35;;;11.35;;
24557;SDS011;12726;49.148;8.582;2022-12-07T02:33:16;16.55;;;10.55;;
24557;SDS011;12726;49.148;8.582;2022-12-07T02:36:06;20.33;;;11.60;;
24557;SDS011;12726;49.148;8.582;2022-12-07T02:38:57;15.27;;;10.43;;
24557;SDS011;12726;49.148;8.582;2022-12-07T02:41:47;19.95;;;12.63;;
24557;SDS011;12726;49.148;8.582;2022-12-07T02:44:36;17.83;;;11.27;;
24557;SDS011;12726;49.148;8.582;2022-12-07T02:47:23;20.13;;;11.80;;
24557;SDS011;12726;49.148;8.582;2022-12-07T02:50:10;22.38;;;13.23;;
24557;SDS011;12726;49.148;8.582;2022-12-07T02:52:56;21.17;;;12.32;;
24557;SDS011;12726;49.148;8.582;2022-12-07T02:55:41;19.77;;;12.48;;
24557;SDS011;12726;49.148;8.582;2022-12-07T02:58:30;21.73;;;12.57;;
24557;SDS011;12726;49.148;8.582;2022-12-07T03:01:25;19.42;;;12.60;;
24557;SDS011;12726;49.148;8.582;2022-12-07T03:04:22;19.45;;;12.20;;
24557;SDS011;12726;49.148;8.582;2022-12-07T03:07:18;19.33;;;11.63;;
24557;SDS011;12726;49.148;8.582;2022-12-07T03:10:12;20.30;;;12.00;;
24557;SDS011;12726;49.148;8.582;2022-12-07T03:13:05;16.45;;;10.63;;
24557;SDS011;12726;49.148;8.582;2022-12-07T03:15:55;18.27;;;11.20;;
24557;SDS011;12726;49.148;8.582;2022-12-07T03:18:47;21.80;;;12.15;;
24557;SDS011;12726;49.148;8.582;2022-12-07T03:21:38;18.20;;;11.45;;
24557;SDS011;12726;49.148;8.582;2022-12-07T03:24:26;18.08;;;11.45;;
24557;SDS011;12726;49.148;8.582;2022-12-07T03:27:15;19.63;;;11.80;;
24557;SDS011;12726;49.148;8.582;2022-12-07T03:30:04;19.92;;;12.05;;
24557;SDS011;12726;49.148;8.582;2022-12-07T03:32:54;18.10;;;11.90;;
24557;SDS011;12726;49.148;8.582;2022-12-07T03:35:45;18.90;;;11.85;;
24557;SDS011;12726;49.148;8.582;2022-12-07T03:38:38;16.27;;;10.65;;
24557;SDS011;12726;49.148;8.582;2022-12-07T03:41:28;21.77;;;12.13;;
24557;SDS011;12726;49.148;8.582;2022-12-07T03:44:16;22.67;;;13.00;;
24557;SDS011;12726;49.148;8.582;2022-12-07T03:47:03;21.85;;;12.65;;
24557;SDS011;12726;49.148;8.582;2022-12-07T03:49:51;19.02;;;11.02;;
24557;SDS011;12726;49.148;8.582;2022-12-07T03:52:40;18.17;;;11.50;;
24557;SDS011;12726;49.148;8.582;2022-12-07T03:55:32;18.63;;;11.80;;
24557;SDS011;12726;49.148;8.582;2022-12-07T03:58:20;20.75;;;11.57;;
24557;SDS011;12726;49.148;8.582;2022-12-07T04:01:08;19.90;;;11.13;;
24557;SDS011;12726;49.148;8.582;2022-12-07T04:03:53;18.58;;;11.32;;
24557;SDS011;12726;49.148;8.582;2022-12-07T04:06:38;23.13;;;12.98;;
24557;SDS011;12726;49.148;8.582;2022-12-07T04:09:24;19.67;;;13.10;;
24557;SDS011;12726;49.148;8.582;2022-12-07T04:12:10;22.00;;;13.15;;
24557;SDS011;12726;49.148;8.582;2022-12-07T04:14:55;23.38;;;13.38;;
24557;SDS011;12726;49.148;8.582;2022-12-07T04:17:41;22.13;;;13.75;;
24557;SDS011;12726;49.148;8.582;2022-12-07T04:20:26;19.95;;;11.82;;
24557;SDS011;12726;49.148;8.582;2022-12-07T04:23:11;15.50;;;10.77;;
24557;SDS011;12726;49.148;8.582;2022-12-07T04:25:57;19.15;;;11.23;;
24557;SDS011;12726;49.148;8.582;2022-12-07T04:28:43;19.15;;;11.70;;
24557;SDS011;12726;49.148;8.582;2022-12-07T04:31:28;18.63;;;11.95;;
24557;SDS011;12726;49.148;8.582;2022-12-07T04:34:14;19.70;;;11.23;;
24557;SDS011;12726;49.148;8.582;2022-12-07T04:37:00;20.63;;;11.18;;
24557;SDS011;12726;49.148;8.582;2022-12-07T04:39:45;17.63;;;11.32;;
24557;SDS011;12726;49.148;8.582;2022-12-07T04:42:30;19.40;;;11.48;;
24557;SDS011;12726;49.148;8.582;2022-12-07T04:45:17;19.85;;;11.65;;
24557;SDS011;12726;49.148;8.582;2022-12-07T04:48:03;18.15;;;11.10;;
24557;SDS011;12726;49.148;8.582;2022-12-07T04:50:48;19.02;;;11.50;;
24557;SDS011;12726;49.148;8.582;2022-12-07T04:53:34;19.30;;;11.80;;
24557;SDS011;12726;49.148;8.582;2022-12-07T04:56:19;19.90;;;11.40;;
24557;SDS011;12726;49.148;8.582;2022-12-07T04:59:06;15.27;;;10.05;;
24557;SDS011;12726;49.148;8.582;2022-12-07T05:01:53;23.20;;;11.85;;
24557;SDS011;12726;49.148;8.582;2022-12-07T05:04:39;20.30;;;11.70;;
24557;SDS011;12726;49.148;8.582;2022-12-07T05:07:24;16.70;;;10.98;;
24557;SDS011;12726;49.148;8.582;2022-12-07T05:10:09;17.40;;;11.00;;
24557;SDS011;12726;49.148;8.582;2022-12-07T05:12:55;18.60;;;11.20;;
24557;SDS011;12726;49.148;8.582;2022-12-07T05:15:40;18.98;;;11.77;;
24557;SDS011;12726;49.148;8.582;2022-12-07T05:18:28;20.23;;;11.02;;
24557;SDS011;12726;49.148;8.582;2022-12-07T05:21:14;21.13;;;11.77;;
24557;SDS011;12726;49.148;8.582;2022-12-07T05:23:59;19.70;;;11.30;;
24557;SDS011;12726;49.148;8.582;2022-12-07T05:26:44;23.45;;;11.45;;
24557;SDS011;12726;49.148;8.582;2022-12-07T05:29:30;16.88;;;10.68;;
24557;SDS011;12726;49.148;8.582;2022-12-07T05:32:15;21.85;;;13.30;;
24557;SDS011;12726;49.148;8.582;2022-12-07T05:35:02;19.65;;;11.55;;
24557;SDS011;12726;49.148;8.582;2022-12-07T05:37:47;19.95;;;12.23;;
24557;SDS011;12726;49.148;8.582;2022-12-07T05:40:32;20.52;;;12.40;;
24557;SDS011;12726;49.148;8.582;2022-12-07T05:43:17;17.42;;;11.43;;
24557;SDS011;12726;49.148;8.582;2022-12-07T05:46:03;20.40;;;11.38;;
24557;SDS011;12726;49.148;8.582;2022-12-07T05:48:48;21.50;;;11.98;;
24557;SDS011;12726;49.148;8.582;2022-12-07T05:51:35;18.85;;;11.48;;
24557;SDS011;12726;49.148;8.582;2022-12-07T05:54:20;17.92;;;11.27;;
24557;SDS011;12726;49.148;8.582;2022-12-07T05:57:06;17.02;;;10.60;;
24557;SDS011;12726;49.148;8.582;2022-12-07T05:59:51;21.65;;;11.07;;
24557;SDS011;12726;49.148;8.582;2022-12-07T06:02:35;21.45;;;12.45;;
24557;SDS011;12726;49.148;8.582;2022-12-07T06:05:21;24.17;;;12.75;;
24557;SDS011;12726;49.148;8.582;2022-12-07T06:08:07;19.00;;;11.32;;
24557;SDS011;12726;49.148;8.582;2022-12-07T06:10:53;19.45;;;11.73;;
24557;SDS011;12726;49.148;8.582;2022-12-07T06:13:52;19.00;;;11.70;;
24557;SDS011;12726;49.148;8.582;2022-12-07T06:16:37;19.52;;;11.77;;
24557;SDS011;12726;49.148;8.582;2022-12-07T06:19:23;20.17;;;11.30;;
24557;SDS011;12726;49.148;8.582;2022-12-07T06:22:08;21.38;;;11.50;;
24557;SDS011;12726;49.148;8.582;2022-12-07T06:24:56;18.50;;;11.60;;
24557;SDS011;12726;49.148;8.582;2022-12-07T06:27:41;20.35;;;11.27;;
24557;SDS011;12726;49.148;8.582;2022-12-07T06:30:27;17.60;;;10.82;;
24557;SDS011;12726;49.148;8.582;2022-12-07T06:33:12;20.27;;;11.38;;
24557;SDS011;12726;49.148;8.582;2022-12-07T06:35:57;15.82;;;10.20;;
24557;SDS011;12726;49.148;8.582;2022-12-07T06:38:42;15.88;;;9.98;;
24557;SDS011;12726;49.148;8.582;2022-12-07T06:41:29;20.75;;;11.38;;
24557;SDS011;12726;49.148;8.582;2022-12-07T06:44:14;17.83;;;10.82;;
24557;SDS011;12726;49.148;8.582;2022-12-07T06:46:59;19.85;;;11.30;;
24557;SDS011;12726;49.148;8.582;2022-12-07T06:49:45;20.25;;;11.65;;
24557;SDS011;12726;49.148;8.582;2022-12-07T06:52:30;16.50;;;10.85;;
24557;SDS011;12726;49.148;8.582;2022-12-07T06:55:18;19.10;;;11.02;;
24557;SDS011;12726;49.148;8.582;2022-12-07T06:58:04;19.52;;;11.00;;
24557;SDS011;12726;49.148;8.582;2022-12-07T07:00:52;19.88;;;11.77;;
24557;SDS011;12726;49.148;8.582;2022-12-07T07:03:38;20.05;;;11.48;;
24557;SDS011;12726;49.148;8.582;2022-12-07T07:06:23;18.50;;;10.77;;
24557;SDS011;12726;49.148;8.582;2022-12-07T07:09:09;20.13;;;11.07;;
24557;SDS011;12726;49.148;8.582;2022-12-07T07:11:54;19.13;;;11.73;;
24557;SDS011;12726;49.148;8.582;2022-12-07T07:14:41;19.88;;;11.45;;
24557;SDS011;12726;49.148;8.582;2022-12-07T07:17:26;18.20;;;10.85;;
24557;SDS011;12726;49.148;8.582;2022-12-07T07:20:13;20.42;;;11.38;;
24557;SDS011;12726;49.148;8.582;2022-12-07T07:22:58;20.95;;;11.23;;
24557;SDS011;12726;49.148;8.582;2022-12-07T07:25:43;20.15;;;11.35;;
24557;SDS011;12726;49.148;8.582;2022-12-07T07:28:29;18.15;;;10.30;;
24557;SDS011;12726;49.148;8.582;2022-12-07T07:31:15;18.63;;;10.77;;
24557;SDS011;12726;49.148;8.582;2022-12-07T07:34:01;19.92;;;11.02;;
24557;SDS011;12726;49.148;8.582;2022-12-07T07:36:46;18.48;;;10.80;;
24557;SDS011;12726;49.148;8.582;2022-12-07T07:39:31;18.25;;;10.50;;
24557;SDS011;12726;49.148;8.582;2022-12-07T07:42:17;20.25;;;11.10;;
24557;SDS011;12726;49.148;8.582;2022-12-07T07:45:02;18.23;;;10.45;;
24557;SDS011;12726;49.148;8.582;2022-12-07T07:47:50;21.10;;;10.00;;
24557;SDS011;12726;49.148;8.582;2022-12-07T07:50:35;16.83;;;10.52;;
24557;SDS011;12726;49.148;8.582;2022-12-07T07:53:21;21.67;;;11.70;;
24557;SDS011;12726;49.148;8.582;2022-12-07T07:56:06;18.52;;;11.15;;
24557;SDS011;12726;49.148;8.582;2022-12-07T07:58:51;20.58;;;11.50;;
24557;SDS011;12726;49.148;8.582;2022-12-07T08:01:37;17.77;;;10.60;;
24557;SDS011;12726;49.148;8.582;2022-12-07T08:04:23;18.42;;;10.57;;
24557;SDS011;12726;49.148;8.582;2022-12-07T08:07:10;18.08;;;10.45;;
24557;SDS011;12726;49.148;8.582;2022-12-07T08:09:55;22.20;;;11.80;;
24557;SDS011;12726;49.148;8.582;2022-12-07T08:12:43;19.60;;;11.52;;
24557;SDS011;12726;49.148;8.582;2022-12-07T08:15:47;21.08;;;11.30;;
24557;SDS011;12726;49.148;8.582;2022-12-07T08:18:34;17.33;;;10.38;;
24557;SDS011;12726;49.148;8.582;2022-12-07T08:21:22;21.27;;;11.05;;
24557;SDS011;12726;49.148;8.582;2022-12-07T08:24:07;18.45;;;10.35;;
24557;SDS011;12726;49.148;8.582;2022-12-07T08:26:55;15.70;;;9.40;;
24557;SDS011;12726;49.148;8.582;2022-12-07T08:29:40;14.70;;;9.75;;
24557;SDS011;12726;49.148;8.582;2022-12-07T08:32:26;16.15;;;9.60;;
24557;SDS011;12726;49.148;8.582;2022-12-07T08:35:11;14.85;;;9.63;;
24557;SDS011;12726;49.148;8.582;2022-12-07T08:37:58;18.98;;;10.63;;
24557;SDS011;12726;49.148;8.582;2022-12-07T08:40:52;16.65;;;10.07;;
24557;SDS011;12726;49.148;8.582;2022-12-07T08:43:38;16.23;;;10.20;;
24557;SDS011;12726;49.148;8.582;2022-12-07T08:46:24;19.63;;;10.63;;
24557;SDS011;12726;49.148;8.582;2022-12-07T08:49:17;19.33;;;10.65;;
24557;SDS011;12726;49.148;8.582;2022-12-07T08:52:05;15.10;;;9.02;;
24557;SDS011;12726;49.148;8.582;2022-12-07T08:54:52;15.48;;;9.18;;
24557;SDS011;12726;49.148;8.582;2022-12-07T08:57:37;18.13;;;10.10;;
24557;SDS011;12726;49.148;8.582;2022-12-07T09:00:25;20.58;;;10.23;;
24557;SDS011;12726;49.148;8.582;2022-12-07T09:03:10;17.20;;;10.02;;
24557;SDS011;12726;49.148;8.582;2022-12-07T09:05:56;15.70;;;9.50;;
24557;SDS011;12726;49.148;8.582;2022-12-07T09:08:42;15.05;;;9.70;;
24557;SDS011;12726;49.148;8.582;2022-12-07T09:11:32;16.40;;;8.90;;
24557;SDS011;12726;49.148;8.582;2022-12-07T09:14:17;15.98;;;9.00;;
24557;SDS011;12726;49.148;8.582;2022-12-07T09:17:06;16.55;;;9.48;;
24557;SDS011;12726;49.148;8.582;2022-12-07T09:19:52;15.35;;;9.23;;
24557;SDS011;12726;49.148;8.582;2022-12-07T09:22:37;14.50;;;8.68;;
24557;SDS011;12726;49.148;8.582;2022-12-07T09:25:22;12.77;;;8.30;;
24557;SDS011;12726;49.148;8.582;2022-12-07T09:28:11;15.98;;;9.93;;
24557;SDS011;12726;49.148;8.582;2022-12-07T09:30:56;14.43;;;8.88;;
24557;SDS011;12726;49.148;8.582;2022-12-07T09:33:44;13.98;;;9.10;;
24557;SDS011;12726;49.148;8.582;2022-12-07T09:36:30;15.93;;;9.10;;
24557;SDS011;12726;49.148;8.582;2022-12-07T09:39:15;15.18;;;9.07;;
24557;SDS011;12726;49.148;8.582;2022-12-07T09:42:02;13.70;;;8.23;;
24557;SDS011;12726;49.148;8.582;2022-12-07T09:44:50;14.07;;;8.45;;
24557;SDS011;12726;49.148;8.582;2022-12-07T09:47:36;13.00;;;7.80;;
24557;SDS011;12726;49.148;8.582;2022-12-07T09:50:23;17.63;;;8.75;;
24557;SDS011;12726;49.148;8.582;2022-12-07T09:53:12;14.50;;;8.50;;
24557;SDS011;12726;49.148;8.582;2022-12-07T09:56:00;12.10;;;8.27;;
24557;SDS011;12726;49.148;8.582;2022-12-07T09:58:46;13.85;;;8.55;;
24557;SDS011;12726;49.148;8.582;2022-12-07T10:01:33;14.23;;;8.57;;
24557;SDS011;12726;49.148;8.582;2022-12-07T10:04:19;20.27;;;9.80;;
24557;SDS011;12726;49.148;8.582;2022-12-07T10:07:09;15.63;;;9.00;;
24557;SDS011;12726;49.148;8.582;2022-12-07T10:09:54;15.93;;;9.02;;
24557;SDS011;12726;49.148;8.582;2022-12-07T10:15:51;14.50;;;8.75;;
24557;SDS011;12726;49.148;8.582;2022-12-07T10:18:40;18.63;;;9.82;;
24557;SDS011;12726;49.148;8.582;2022-12-07T10:21:28;14.38;;;8.98;;
24557;SDS011;12726;49.148;8.582;2022-12-07T10:24:14;15.38;;;8.68;;
24557;SDS011;12726;49.148;8.582;2022-12-07T10:26:59;15.18;;;8.95;;
24557;SDS011;12726;49.148;8.582;2022-12-07T10:29:47;13.77;;;9.10;;
24557;SDS011;12726;49.148;8.582;2022-12-07T10:32:35;16.10;;;9.35;;
24557;SDS011;12726;49.148;8.582;2022-12-07T10:35:24;19.75;;;10.23;;
24557;SDS011;12726;49.148;8.582;2022-12-07T10:38:15;17.80;;;10.23;;
24557;SDS011;12726;49.148;8.582;2022-12-07T10:41:05;16.85;;;10.00;;
24557;SDS011;12726;49.148;8.582;2022-12-07T10:43:52;14.75;;;9.40;;
24557;SDS011;12726;49.148;8.582;2022-12-07T10:53:20;17.15;;;9.65;;
24557;SDS011;12726;49.148;8.582;2022-12-07T10:56:18;16.50;;;9.07;;
24557;SDS011;12726;49.148;8.582;2022-12-07T10:59:23;16.25;;;9.05;;
24557;SDS011;12726;49.148;8.582;2022-12-07T11:05:38;15.38;;;8.57;;
24557;SDS011;12726;49.148;8.582;2022-12-07T11:08:31;18.65;;;9.65;;
24557;SDS011;12726;49.148;8.582;2022-12-07T11:11:26;16.13;;;8.90;;
24557;SDS011;12726;49.148;8.582;2022-12-07T11:14:19;13.05;;;8.85;;
24557;SDS011;12726;49.148;8.582;2022-12-07T11:17:10;12.77;;;8.23;;
24557;SDS011;12726;49.148;8.582;2022-12-07T11:23:01;13.68;;;8.15;;
24557;SDS011;12726;49.148;8.582;2022-12-07T11:25:58;18.52;;;9.70;;
24557;SDS011;12726;49.148;8.582;2022-12-07T11:28:55;16.70;;;8.50;;
24557;SDS011;12726;49.148;8.582;2022-12-07T11:31:54;16.20;;;8.82;;
24557;SDS011;12726;49.148;8.582;2022-12-07T11:34:48;13.75;;;8.10;;
24557;SDS011;12726;49.148;8.582;2022-12-07T11:37:44;13.10;;;8.02;;
24557;SDS011;12726;49.148;8.582;2022-12-07T11:40:33;16.02;;;7.95;;
24557;SDS011;12726;49.148;8.582;2022-12-07T11:43:21;16.95;;;8.80;;
24557;SDS011;12726;49.148;8.582;2022-12-07T11:46:11;15.55;;;8.98;;
24557;SDS011;12726;49.148;8.582;2022-12-07T11:49:02;13.27;;;8.63;;
24557;SDS011;12726;49.148;8.582;2022-12-07T11:51:53;12.95;;;8.40;;
24557;SDS011;12726;49.148;8.582;2022-12-07T11:54:43;16.13;;;8.15;;
24557;SDS011;12726;49.148;8.582;2022-12-07T11:57:35;15.02;;;8.95;;
24557;SDS011;12726;49.148;8.582;2022-12-07T12:00:26;15.65;;;9.85;;
24557;SDS011;12726;49.148;8.582;2022-12-07T12:03:12;13.60;;;8.82;;
24557;SDS011;12726;49.148;8.582;2022-12-07T12:06:05;14.15;;;9.23;;
24557;SDS011;12726;49.148;8.582;2022-12-07T12:08:51;18.10;;;9.30;;
24557;SDS011;12726;49.148;8.582;2022-12-07T12:11:49;14.02;;;9.38;;
24557;SDS011;12726;49.148;8.582;2022-12-07T12:14:48;15.93;;;9.18;;
24557;SDS011;12726;49.148;8.582;2022-12-07T12:17:47;13.32;;;8.40;;
24557;SDS011;12726;49.148;8.582;2022-12-07T12:20:43;14.82;;;9.18;;
24557;SDS011;12726;49.148;8.582;2022-12-07T12:23:35;15.32;;;9.80;;
24557;SDS011;12726;49.148;8.582;2022-12-07T12:26:25;17.35;;;8.80;;
24557;SDS011;12726;49.148;8.582;2022-12-07T12:29:19;14.55;;;8.73;;
24557;SDS011;12726;49.148;8.582;2022-12-07T12:32:18;14.55;;;9.38;;
24557;SDS011;12726;49.148;8.582;2022-12-07T12:35:22;13.80;;;9.13;;
24557;SDS011;12726;49.148;8.582;2022-12-07T12:38:23;13.45;;;8.45;;
24557;SDS011;12726;49.148;8.582;2022-12-07T12:41:51;14.63;;;8.93;;
24557;SDS011;12726;49.148;8.582;2022-12-07T12:54:24;15.40;;;9.27;;
24557;SDS011;12726;49.148;8.582;2022-12-07T12:57:12;16.08;;;9.02;;
24557;SDS011;12726;49.148;8.582;2022-12-07T13:00:14;16.48;;;9.65;;
24557;SDS011;12726;49.148;8.582;2022-12-07T13:03:02;16.15;;;9.57;;
24557;SDS011;12726;49.148;8.582;2022-12-07T13:05:49;18.67;;;8.95;;
24557;SDS011;12726;49.148;8.582;2022-12-07T13:09:17;14.18;;;8.75;;
24557;SDS011;12726;49.148;8.582;2022-12-07T13:12:11;15.85;;;9.27;;
24557;SDS011;12726;49.148;8.582;2022-12-07T13:14:58;17.83;;;9.18;;
24557;SDS011;12726;49.148;8.582;2022-12-07T13:18:04;15.48;;;9.13;;
24557;SDS011;12726;49.148;8.582;2022-12-07T13:24:23;17.23;;;9.35;;
24557;SDS011;12726;49.148;8.582;2022-12-07T13:27:08;14.65;;;8.65;;
24557;SDS011;12726;49.148;8.582;2022-12-07T13:29:56;15.23;;;8.57;;
24557;SDS011;12726;49.148;8.582;2022-12-07T13:32:43;17.50;;;9.05;;
24557;SDS011;12726;49.148;8.582;2022-12-07T13:35:36;14.32;;;9.05;;
24557;SDS011;12726;49.148;8.582;2022-12-07T13:38:23;16.20;;;8.32;;
24557;SDS011;12726;49.148;8.582;2022-12-07T13:41:14;17.38;;;9.00;;
24557;SDS011;12726;49.148;8.582;2022-12-07T13:44:02;17.58;;;9.45;;
24557;SDS011;12726;49.148;8.582;2022-12-07T13:46:53;18.73;;;8.68;;
24557;SDS011;12726;49.148;8.582;2022-12-07T13:49:46;13.77;;;8.65;;
24557;SDS011;12726;49.148;8.582;2022-12-07T13:52:32;14.00;;;8.85;;
24557;SDS011;12726;49.148;8.582;2022-12-07T13:55:28;14.95;;;8.57;;
24557;SDS011;12726;49.148;8.582;2022-12-07T13:58:15;19.45;;;10.43;;
24557;SDS011;12726;49.148;8.582;2022-12-07T14:01:01;15.27;;;9.05;;
24557;SDS011;12726;49.148;8.582;2022-12-07T14:03:46;17.42;;;9.10;;
24557;SDS011;12726;49.148;8.582;2022-12-07T14:06:32;17.25;;;9.48;;
24557;SDS011;12726;49.148;8.582;2022-12-07T14:09:18;16.08;;;9.38;;
24557;SDS011;12726;49.148;8.582;2022-12-07T14:12:05;18.13;;;9.40;;
24557;SDS011;12726;49.148;8.582;2022-12-07T14:14:52;16.55;;;8.95;;
24557;SDS011;12726;49.148;8.582;2022-12-07T14:17:38;15.05;;;9.25;;
24557;SDS011;12726;49.148;8.582;2022-12-07T14:20:36;13.75;;;8.32;;
24557;SDS011;12726;49.148;8.582;2022-12-07T14:23:23;14.52;;;8.98;;
24557;SDS011;12726;49.148;8.582;2022-12-07T14:26:10;14.50;;;8.45;;
24557;SDS011;12726;49.148;8.582;2022-12-07T14:32:15;15.00;;;9.40;;
24557;SDS011;12726;49.148;8.582;2022-12-07T14:35:09;15.65;;;9.18;;
24557;SDS011;12726;49.148;8.582;2022-12-07T14:37:55;14.77;;;8.63;;
24557;SDS011;12726;49.148;8.582;2022-12-07T14:40:41;16.77;;;9.65;;
24557;SDS011;12726;49.148;8.582;2022-12-07T14:43:29;16.17;;;9.32;;
24557;SDS011;12726;49.148;8.582;2022-12-07T14:46:14;13.77;;;7.78;;
24557;SDS011;12726;49.148;8.582;2022-12-07T14:49:01;17.08;;;9.15;;
24557;SDS011;12726;49.148;8.582;2022-12-07T14:51:46;17.23;;;9.23;;
24557;SDS011;12726;49.148;8.582;2022-12-07T14:54:32;13.88;;;8.52;;
24557;SDS011;12726;49.148;8.582;2022-12-07T14:57:18;15.98;;;9.68;;
24557;SDS011;12726;49.148;8.582;2022-12-07T15:00:04;17.58;;;9.40;;
24557;SDS011;12726;49.148;8.582;2022-12-07T15:02:50;15.93;;;9.25;;
24557;SDS011;12726;49.148;8.582;2022-12-07T15:05:37;15.25;;;8.45;;
24557;SDS011;12726;49.148;8.582;2022-12-07T15:08:23;14.07;;;8.45;;
24557;SDS011;12726;49.148;8.582;2022-12-07T15:11:09;15.35;;;8.25;;
24557;SDS011;12726;49.148;8.582;2022-12-07T15:13:56;14.02;;;7.95;;
24557;SDS011;12726;49.148;8.582;2022-12-07T15:16:55;14.20;;;7.88;;
24557;SDS011;12726;49.148;8.582;2022-12-07T15:19:40;15.50;;;8.25;;
24557;SDS011;12726;49.148;8.582;2022-12-07T15:22:27;12.30;;;7.97;;
24557;SDS011;12726;49.148;8.582;2022-12-07T15:25:13;15.32;;;8.57;;
24557;SDS011;12726;49.148;8.582;2022-12-07T15:27:59;13.55;;;8.02;;
24557;SDS011;12726;49.148;8.582;2022-12-07T15:30:45;15.65;;;8.15;;
24557;SDS011;12726;49.148;8.582;2022-12-07T15:33:30;10.77;;;7.22;;
24557;SDS011;12726;49.148;8.582;2022-12-07T15:36:18;12.57;;;7.97;;
24557;SDS011;12726;49.148;8.582;2022-12-07T15:39:06;11.23;;;7.50;;
24557;SDS011;12726;49.148;8.582;2022-12-07T15:41:51;13.32;;;7.57;;
24557;SDS011;12726;49.148;8.582;2022-12-07T15:44:36;14.63;;;8.20;;
24557;SDS011;12726;49.148;8.582;2022-12-07T15:47:40;13.25;;;7.90;;
24557;SDS011;12726;49.148;8.582;2022-12-07T15:50:26;16.00;;;8.55;;
24557;SDS011;12726;49.148;8.582;2022-12-07T15:53:11;14.85;;;8.77;;
24557;SDS011;12726;49.148;8.582;2022-12-07T15:55:58;14.07;;;8.55;;
24557;SDS011;12726;49.148;8.582;2022-12-07T15:58:44;13.13;;;7.68;;
24557;SDS011;12726;49.148;8.582;2022-12-07T16:01:29;13.32;;;8.10;;
24557;SDS011;12726;49.148;8.582;2022-12-07T16:04:14;13.65;;;8.55;;
24557;SDS011;12726;49.148;8.582;2022-12-07T16:06:59;12.90;;;8.20;;
24557;SDS011;12726;49.148;8.582;2022-12-07T16:09:44;13.65;;;7.68;;
24557;SDS011;12726;49.148;8.582;2022-12-07T16:12:32;14.15;;;8.50;;
24557;SDS011;12726;49.148;8.582;2022-12-07T16:15:17;14.05;;;8.82;;
24557;SDS011;12726;49.148;8.582;2022-12-07T16:18:02;14.43;;;8.32;;
24557;SDS011;12726;49.148;8.582;2022-12-07T16:20:48;14.85;;;8.75;;
24557;SDS011;12726;49.148;8.582;2022-12-07T16:23:33;15.18;;;8.95;;
24557;SDS011;12726;49.148;8.582;2022-12-07T16:26:19;15.05;;;9.35;;
24557;SDS011;12726;49.148;8.582;2022-12-07T16:29:09;15.40;;;8.70;;
24557;SDS011;12726;49.148;8.582;2022-12-07T16:31:56;14.02;;;9.25;;
24557;SDS011;12726;49.148;8.582;2022-12-07T16:34:41;14.27;;;9.02;;
24557;SDS011;12726;49.148;8.582;2022-12-07T16:37:26;14.32;;;8.55;;
24557;SDS011;12726;49.148;8.582;2022-12-07T16:40:11;14.77;;;9.00;;
24557;SDS011;12726;49.148;8.582;2022-12-07T16:42:57;15.98;;;9.65;;
24557;SDS011;12726;49.148;8.582;2022-12-07T16:45:43;16.20;;;9.05;;
24557;SDS011;12726;49.148;8.582;2022-12-07T16:48:30;15.13;;;9.10;;
24557;SDS011;12726;49.148;8.582;2022-12-07T16:51:15;16.73;;;8.98;;
24557;SDS011;12726;49.148;8.582;2022-12-07T16:54:00;16.30;;;9.27;;
24557;SDS011;12726;49.148;8.582;2022-12-07T16:56:46;15.73;;;9.52;;
24557;SDS011;12726;49.148;8.582;2022-12-07T16:59:31;14.60;;;9.10;;
24557;SDS011;12726;49.148;8.582;2022-12-07T17:02:18;17.48;;;10.15;;
24557;SDS011;12726;49.148;8.582;2022-12-07T17:05:03;15.20;;;8.70;;
24557;SDS011;12726;49.148;8.582;2022-12-07T17:07:48;17.70;;;10.18;;